Pagina principale
METAR-TAF:

METAR-TAF

Aeroporti :

Aeroporto Internazionale di Teheran-Mehrabad

Teheran, Iran

latitudine: 35-41N, longitudine: 051-21E, altezza: 1204 m

Osservazione

Il bollettino è stato emesso 37 minuti fa, alle 18:30 UTC
Vento 4 kt da nord-ovest
Temperature 27°C
Umidità 18%
Pressione 1017 hPa
Visibilità 10 km o più
Nubi sparse ad un'altezza di 9000 ft

METAR: OIII 241830Z 32004KT 9999 SCT090 27/01 Q1016 A3003

Ora: 23:37 (19:07 UTC)

Previsione

Il bollettino è stato emesso 1 ora e 37 minuti fa, alle 17:30 UTC
Previsione valida dal 24 alle 18 UTC al 25 alle 24 UTC
Vento 8 kt da ovest/nord-ovest
Visibilità: 8000 m
Poco nuvoloso ad un'altezza di 3500 ft
Nubi sparse ad un'altezza di 10000 ft
Temporaneamente
dal 25 alle 08 UTC al 25 alle 15 UTC
Vento 18 kt da ovest/sud-ovest

TAF: OIII 241730Z 2418/2524 30008KT 8000 FEW035 SCT100 TEMPO 2508/2515 25018KT

Osservazioni e previsioni meteorologiche di più di 4000 aeroporti (messaggi METAR e TAF).

Le stazioni disponibili sono rappresentate dai dischi gialli e rossi sulla carta.

Puntare il mouse per vedere il nome della stazione.

Clicca sopra per visualizzare le osservazioni e previsioni meteorologiche.

Per cambiare la mappa : fare clic sui pulsanti verdi con una croce nera per ingrandire, il pulsante verde con un trattino per diminuire, o sulla freccia verde per le mappe adiacenti.


METAR-TAF: